Flugplatz Ingolstadt Manching Airport

Bericht für ETSI

vom 20.10. um 02:20 UTC

kein Wind

Sichtweite 200 m

Temperatur 6.0°C

Taupunkt 6.0°C

Luftfeuchtigkeit 100%

Luftdruck 1020 hPa

ETSI 200220Z AUTO 00000KT 0200 // ////// 06/06 Q1020 ///
Keine Prognose (TAF) verfügbar.
Impressum